Terminal Aerodrome Forecast
Issued by NWS

Home | Current Version | Previous Version | Graphics & Text | Print | Product List | Glossary On
Versions: 1 2 3 4 5 6 7 8 9 10 11 12 13 14 15 16 17 18 19 20 21 22 23 24 25 26 27 28 29 30 31 32 33
000
FTUS43 KTOP 302005 AAA
TAFFOE
TAF AMD
KFOE 302005Z 3020/3118 10005KT P6SM SCT020
      TEMPO 3020/3022 BKN025
     FM310900 10003KT 3SM BR SCT020
     FM311400 16006KT P6SM SCT025=

USA.gov is the U.S. government's official web portal to all federal, state and local government web resources and services.